map of STA home
STA - Airport
Location
City:  Stauning, Denmark
ICAO:EKVJ
IATA:STA

Details
Type:Airport (Aerodrome, Airfield)
Latitude:5559'24"N (55.990122)
Longitude:821'14"E (8.353906)
Elevation:17 ft (5 m)
Variation:2.59E (WMM2015v2 magnetic declination)
0.19 annual change
Runways:1
Longest:4757 × 98 ft (1450 × 30 m)

Time
Time Zone:UTC+1 (DST+2)
Local Time:

Weather
METAR:EKVJ 041350Z 20020KT 6000 -RA BKN008 03/03 Q1016

Related Locations
Nearby:
Farthest:CHT: 11562 mi / 18607 km
Waitangi [Tuuta], CIT, NZ

Find:

   beyond  
but within

Other Information
Maps:
NOTAMs:
Links:
Sources:

  
  • flag of Denmark
  

Sectional Chart

Flight Planning
at skyvector.com

Satellite Image

Google Maps Satellite view

 

Copyright © 2004-2019 Karl L. Swartz. All rights reserved.
The Great Circle Mapper name and logo are trademarks of the Great Circle Mapper.
All other trademarks mentioned herein belong to their respective owners.
Please see credits for attibutions and further copyright information.

  Follow gcmap on Facebook Follow gcmap on Twitter GCmap on LinkedIn

hCard Microformat

Geo Microformat